sensor_id;sensor_type;location;lat;lon;timestamp;P1;durP1;ratioP1;P2;durP2;ratioP2
51467;SDS011;37545;45.302;-122.946;2022-09-09T00:01:17;8.85;;;1.35;;
51467;SDS011;37545;45.302;-122.946;2022-09-09T00:03:57;3.33;;;0.75;;
51467;SDS011;37545;45.302;-122.946;2022-09-09T00:06:31;1.50;;;1.13;;
51467;SDS011;37545;45.302;-122.946;2022-09-09T00:09:02;6.22;;;0.80;;
51467;SDS011;37545;45.302;-122.946;2022-09-09T00:11:43;3.22;;;0.63;;
51467;SDS011;37545;45.302;-122.946;2022-09-09T00:14:17;3.00;;;0.70;;
51467;SDS011;37545;45.302;-122.946;2022-09-09T00:16:51;2.00;;;0.77;;
51467;SDS011;37545;45.302;-122.946;2022-09-09T00:19:24;4.10;;;1.00;;
51467;SDS011;37545;45.302;-122.946;2022-09-09T00:22:02;2.58;;;0.60;;
51467;SDS011;37545;45.302;-122.946;2022-09-09T00:24:42;3.75;;;0.57;;
51467;SDS011;37545;45.302;-122.946;2022-09-09T00:27:17;3.20;;;0.40;;
51467;SDS011;37545;45.302;-122.946;2022-09-09T00:29:56;1.65;;;0.60;;
51467;SDS011;37545;45.302;-122.946;2022-09-09T00:32:28;2.08;;;0.52;;
51467;SDS011;37545;45.302;-122.946;2022-09-09T00:35:02;4.68;;;0.57;;
51467;SDS011;37545;45.302;-122.946;2022-09-09T00:37:43;4.93;;;0.70;;
51467;SDS011;37545;45.302;-122.946;2022-09-09T00:40:18;2.97;;;0.70;;
51467;SDS011;37545;45.302;-122.946;2022-09-09T00:42:54;3.08;;;1.38;;
51467;SDS011;37545;45.302;-122.946;2022-09-09T00:45:52;1.65;;;0.60;;
51467;SDS011;37545;45.302;-122.946;2022-09-09T00:48:34;3.70;;;0.93;;
51467;SDS011;37545;45.302;-122.946;2022-09-09T00:51:17;5.88;;;0.90;;
51467;SDS011;37545;45.302;-122.946;2022-09-09T00:53:58;3.10;;;0.55;;
51467;SDS011;37545;45.302;-122.946;2022-09-09T00:56:40;3.22;;;0.63;;
51467;SDS011;37545;45.302;-122.946;2022-09-09T00:59:19;2.55;;;0.60;;
51467;SDS011;37545;45.302;-122.946;2022-09-09T01:01:56;4.38;;;0.70;;
51467;SDS011;37545;45.302;-122.946;2022-09-09T01:04:28;4.63;;;0.70;;
51467;SDS011;37545;45.302;-122.946;2022-09-09T01:07:05;1.05;;;0.50;;
51467;SDS011;37545;45.302;-122.946;2022-09-09T01:09:45;2.55;;;0.63;;
51467;SDS011;37545;45.302;-122.946;2022-09-09T01:12:25;2.38;;;0.50;;
51467;SDS011;37545;45.302;-122.946;2022-09-09T01:15:03;3.67;;;0.85;;
51467;SDS011;37545;45.302;-122.946;2022-09-09T01:17:40;2.45;;;0.40;;
51467;SDS011;37545;45.302;-122.946;2022-09-09T01:20:18;2.03;;;0.50;;
51467;SDS011;37545;45.302;-122.946;2022-09-09T01:22:56;1.08;;;0.47;;
51467;SDS011;37545;45.302;-122.946;2022-09-09T01:26:02;1.35;;;0.57;;
51467;SDS011;37545;45.302;-122.946;2022-09-09T01:28:36;1.75;;;0.50;;
51467;SDS011;37545;45.302;-122.946;2022-09-09T01:31:06;0.98;;;0.57;;
51467;SDS011;37545;45.302;-122.946;2022-09-09T01:33:38;1.88;;;0.50;;
51467;SDS011;37545;45.302;-122.946;2022-09-09T01:36:07;2.47;;;0.52;;
51467;SDS011;37545;45.302;-122.946;2022-09-09T01:38:40;1.20;;;0.40;;
51467;SDS011;37545;45.302;-122.946;2022-09-09T01:41:10;3.63;;;0.70;;
51467;SDS011;37545;45.302;-122.946;2022-09-09T01:43:39;2.35;;;0.60;;
51467;SDS011;37545;45.302;-122.946;2022-09-09T01:46:07;3.45;;;0.50;;
51467;SDS011;37545;45.302;-122.946;2022-09-09T01:48:38;2.03;;;0.57;;
51467;SDS011;37545;45.302;-122.946;2022-09-09T01:51:08;3.05;;;0.60;;
51467;SDS011;37545;45.302;-122.946;2022-09-09T01:53:37;2.33;;;0.55;;
51467;SDS011;37545;45.302;-122.946;2022-09-09T01:56:13;1.33;;;0.60;;
51467;SDS011;37545;45.302;-122.946;2022-09-09T01:58:53;1.92;;;0.70;;
51467;SDS011;37545;45.302;-122.946;2022-09-09T02:01:34;2.38;;;0.60;;
51467;SDS011;37545;45.302;-122.946;2022-09-09T02:04:16;1.25;;;0.57;;
51467;SDS011;37545;45.302;-122.946;2022-09-09T02:06:55;2.83;;;0.70;;
51467;SDS011;37545;45.302;-122.946;2022-09-09T02:09:24;1.92;;;0.70;;
51467;SDS011;37545;45.302;-122.946;2022-09-09T02:12:00;1.55;;;0.73;;
51467;SDS011;37545;45.302;-122.946;2022-09-09T02:14:34;6.30;;;0.80;;
51467;SDS011;37545;45.302;-122.946;2022-09-09T02:17:09;4.07;;;0.95;;
51467;SDS011;37545;45.302;-122.946;2022-09-09T02:19:40;3.30;;;0.73;;
51467;SDS011;37545;45.302;-122.946;2022-09-09T02:22:14;5.28;;;0.80;;
51467;SDS011;37545;45.302;-122.946;2022-09-09T02:24:45;2.35;;;1.10;;
51467;SDS011;37545;45.302;-122.946;2022-09-09T02:27:17;2.88;;;0.70;;
51467;SDS011;37545;45.302;-122.946;2022-09-09T02:29:47;2.60;;;0.70;;
51467;SDS011;37545;45.302;-122.946;2022-09-09T02:32:19;2.70;;;1.00;;
51467;SDS011;37545;45.302;-122.946;2022-09-09T02:34:51;2.00;;;0.50;;
51467;SDS011;37545;45.302;-122.946;2022-09-09T02:37:23;4.65;;;0.77;;
51467;SDS011;37545;45.302;-122.946;2022-09-09T02:39:57;4.55;;;0.80;;
51467;SDS011;37545;45.302;-122.946;2022-09-09T02:42:27;3.25;;;0.88;;
51467;SDS011;37545;45.302;-122.946;2022-09-09T02:44:55;5.47;;;0.80;;
51467;SDS011;37545;45.302;-122.946;2022-09-09T02:47:26;2.30;;;0.60;;
51467;SDS011;37545;45.302;-122.946;2022-09-09T02:50:04;6.78;;;0.60;;
51467;SDS011;37545;45.302;-122.946;2022-09-09T02:52:44;3.90;;;0.65;;
51467;SDS011;37545;45.302;-122.946;2022-09-09T02:55:26;2.50;;;0.88;;
51467;SDS011;37545;45.302;-122.946;2022-09-09T02:58:04;3.97;;;1.25;;
51467;SDS011;37545;45.302;-122.946;2022-09-09T03:00:36;4.15;;;1.20;;
51467;SDS011;37545;45.302;-122.946;2022-09-09T03:03:07;3.10;;;1.70;;
51467;SDS011;37545;45.302;-122.946;2022-09-09T03:05:36;4.38;;;2.25;;
51467;SDS011;37545;45.302;-122.946;2022-09-09T03:08:05;6.55;;;2.05;;
51467;SDS011;37545;45.302;-122.946;2022-09-09T03:10:33;2.47;;;1.13;;
51467;SDS011;37545;45.302;-122.946;2022-09-09T03:13:04;3.60;;;1.00;;
51467;SDS011;37545;45.302;-122.946;2022-09-09T03:15:33;2.10;;;1.42;;
51467;SDS011;37545;45.302;-122.946;2022-09-09T03:18:02;7.05;;;1.27;;
51467;SDS011;37545;45.302;-122.946;2022-09-09T03:20:31;3.25;;;1.02;;
51467;SDS011;37545;45.302;-122.946;2022-09-09T03:23:00;4.95;;;0.73;;
51467;SDS011;37545;45.302;-122.946;2022-09-09T03:25:29;2.67;;;0.68;;
51467;SDS011;37545;45.302;-122.946;2022-09-09T03:27:59;4.68;;;0.90;;
51467;SDS011;37545;45.302;-122.946;2022-09-09T03:30:29;7.13;;;0.77;;
51467;SDS011;37545;45.302;-122.946;2022-09-09T03:32:58;1.38;;;0.52;;
51467;SDS011;37545;45.302;-122.946;2022-09-09T03:35:26;3.40;;;0.93;;
51467;SDS011;37545;45.302;-122.946;2022-09-09T03:37:55;3.50;;;0.80;;
51467;SDS011;37545;45.302;-122.946;2022-09-09T03:40:24;4.97;;;0.80;;
51467;SDS011;37545;45.302;-122.946;2022-09-09T03:42:53;5.40;;;1.20;;
51467;SDS011;37545;45.302;-122.946;2022-09-09T03:45:21;5.85;;;1.48;;
51467;SDS011;37545;45.302;-122.946;2022-09-09T03:47:52;2.00;;;1.27;;
51467;SDS011;37545;45.302;-122.946;2022-09-09T03:50:20;3.75;;;1.27;;
51467;SDS011;37545;45.302;-122.946;2022-09-09T03:52:49;2.30;;;0.85;;
51467;SDS011;37545;45.302;-122.946;2022-09-09T03:55:18;2.80;;;1.00;;
51467;SDS011;37545;45.302;-122.946;2022-09-09T03:57:47;4.28;;;0.90;;
51467;SDS011;37545;45.302;-122.946;2022-09-09T04:00:15;2.17;;;0.80;;
51467;SDS011;37545;45.302;-122.946;2022-09-09T04:02:44;2.03;;;0.80;;
51467;SDS011;37545;45.302;-122.946;2022-09-09T04:05:14;2.10;;;0.80;;
51467;SDS011;37545;45.302;-122.946;2022-09-09T04:07:43;3.33;;;1.00;;
51467;SDS011;37545;45.302;-122.946;2022-09-09T04:10:11;3.42;;;0.80;;
51467;SDS011;37545;45.302;-122.946;2022-09-09T04:12:41;1.60;;;0.77;;
51467;SDS011;37545;45.302;-122.946;2022-09-09T04:15:10;3.83;;;1.42;;
51467;SDS011;37545;45.302;-122.946;2022-09-09T04:17:38;2.72;;;0.82;;
51467;SDS011;37545;45.302;-122.946;2022-09-09T04:20:07;3.85;;;0.90;;
51467;SDS011;37545;45.302;-122.946;2022-09-09T04:22:38;1.80;;;0.68;;
51467;SDS011;37545;45.302;-122.946;2022-09-09T04:25:07;4.35;;;0.98;;
51467;SDS011;37545;45.302;-122.946;2022-09-09T04:27:36;4.45;;;1.00;;
51467;SDS011;37545;45.302;-122.946;2022-09-09T04:30:05;2.38;;;0.63;;
51467;SDS011;37545;45.302;-122.946;2022-09-09T04:32:34;2.78;;;1.00;;
51467;SDS011;37545;45.302;-122.946;2022-09-09T04:35:03;2.92;;;1.02;;
51467;SDS011;37545;45.302;-122.946;2022-09-09T04:37:32;3.00;;;1.08;;
51467;SDS011;37545;45.302;-122.946;2022-09-09T04:40:03;4.47;;;1.67;;
51467;SDS011;37545;45.302;-122.946;2022-09-09T04:42:34;1.98;;;0.80;;
51467;SDS011;37545;45.302;-122.946;2022-09-09T04:45:04;3.88;;;1.20;;
51467;SDS011;37545;45.302;-122.946;2022-09-09T04:47:36;2.60;;;1.00;;
51467;SDS011;37545;45.302;-122.946;2022-09-09T04:50:05;2.20;;;0.75;;
51467;SDS011;37545;45.302;-122.946;2022-09-09T04:52:35;2.72;;;0.80;;
51467;SDS011;37545;45.302;-122.946;2022-09-09T04:55:06;2.58;;;1.00;;
51467;SDS011;37545;45.302;-122.946;2022-09-09T04:57:35;2.75;;;0.77;;
51467;SDS011;37545;45.302;-122.946;2022-09-09T05:00:04;3.63;;;1.25;;
51467;SDS011;37545;45.302;-122.946;2022-09-09T05:02:36;2.25;;;1.00;;
51467;SDS011;37545;45.302;-122.946;2022-09-09T05:05:05;4.20;;;1.00;;
51467;SDS011;37545;45.302;-122.946;2022-09-09T05:07:36;3.83;;;0.90;;
51467;SDS011;37545;45.302;-122.946;2022-09-09T05:10:07;2.42;;;1.00;;
51467;SDS011;37545;45.302;-122.946;2022-09-09T05:12:36;7.38;;;1.60;;
51467;SDS011;37545;45.302;-122.946;2022-09-09T05:15:05;4.78;;;1.10;;
51467;SDS011;37545;45.302;-122.946;2022-09-09T05:17:35;5.07;;;1.10;;
51467;SDS011;37545;45.302;-122.946;2022-09-09T05:20:04;3.05;;;0.93;;
51467;SDS011;37545;45.302;-122.946;2022-09-09T05:22:33;3.97;;;0.93;;
51467;SDS011;37545;45.302;-122.946;2022-09-09T05:25:01;6.15;;;1.00;;
51467;SDS011;37545;45.302;-122.946;2022-09-09T05:27:33;2.40;;;0.88;;
51467;SDS011;37545;45.302;-122.946;2022-09-09T05:30:01;1.80;;;0.93;;
51467;SDS011;37545;45.302;-122.946;2022-09-09T05:32:30;2.88;;;0.90;;
51467;SDS011;37545;45.302;-122.946;2022-09-09T05:34:59;3.20;;;1.10;;
51467;SDS011;37545;45.302;-122.946;2022-09-09T05:37:28;2.15;;;0.77;;
51467;SDS011;37545;45.302;-122.946;2022-09-09T05:39:58;2.00;;;0.70;;
51467;SDS011;37545;45.302;-122.946;2022-09-09T05:42:29;4.00;;;1.15;;
51467;SDS011;37545;45.302;-122.946;2022-09-09T05:45:00;4.28;;;0.77;;
51467;SDS011;37545;45.302;-122.946;2022-09-09T05:47:28;5.22;;;1.10;;
51467;SDS011;37545;45.302;-122.946;2022-09-09T05:49:57;5.78;;;1.40;;
51467;SDS011;37545;45.302;-122.946;2022-09-09T05:52:25;4.57;;;0.80;;
51467;SDS011;37545;45.302;-122.946;2022-09-09T05:54:54;2.72;;;1.00;;
51467;SDS011;37545;45.302;-122.946;2022-09-09T05:57:23;2.50;;;0.73;;
51467;SDS011;37545;45.302;-122.946;2022-09-09T05:59:53;3.55;;;0.85;;
51467;SDS011;37545;45.302;-122.946;2022-09-09T06:02:21;3.03;;;0.77;;
51467;SDS011;37545;45.302;-122.946;2022-09-09T06:04:50;2.63;;;1.00;;
51467;SDS011;37545;45.302;-122.946;2022-09-09T06:07:19;2.10;;;0.80;;
51467;SDS011;37545;45.302;-122.946;2022-09-09T06:09:47;2.60;;;0.75;;
51467;SDS011;37545;45.302;-122.946;2022-09-09T06:12:17;5.50;;;0.90;;
51467;SDS011;37545;45.302;-122.946;2022-09-09T06:14:46;5.35;;;1.70;;
51467;SDS011;37545;45.302;-122.946;2022-09-09T06:17:18;3.38;;;0.93;;
51467;SDS011;37545;45.302;-122.946;2022-09-09T06:19:46;5.03;;;1.40;;
51467;SDS011;37545;45.302;-122.946;2022-09-09T06:22:15;3.72;;;0.93;;
51467;SDS011;37545;45.302;-122.946;2022-09-09T06:24:43;5.78;;;1.05;;
51467;SDS011;37545;45.302;-122.946;2022-09-09T06:27:12;3.17;;;1.00;;
51467;SDS011;37545;45.302;-122.946;2022-09-09T06:29:41;3.40;;;1.00;;
51467;SDS011;37545;45.302;-122.946;2022-09-09T06:32:09;4.05;;;0.77;;
51467;SDS011;37545;45.302;-122.946;2022-09-09T06:34:39;3.88;;;1.00;;
51467;SDS011;37545;45.302;-122.946;2022-09-09T06:37:08;1.92;;;0.98;;
51467;SDS011;37545;45.302;-122.946;2022-09-09T06:39:37;1.77;;;0.70;;
51467;SDS011;37545;45.302;-122.946;2022-09-09T06:42:06;4.72;;;0.95;;
51467;SDS011;37545;45.302;-122.946;2022-09-09T06:44:35;5.43;;;1.05;;
51467;SDS011;37545;45.302;-122.946;2022-09-09T06:47:03;4.55;;;1.05;;
51467;SDS011;37545;45.302;-122.946;2022-09-09T06:49:32;2.90;;;1.00;;
51467;SDS011;37545;45.302;-122.946;2022-09-09T06:52:02;4.18;;;0.98;;
51467;SDS011;37545;45.302;-122.946;2022-09-09T06:54:32;3.13;;;0.90;;
51467;SDS011;37545;45.302;-122.946;2022-09-09T06:57:03;2.70;;;0.70;;
51467;SDS011;37545;45.302;-122.946;2022-09-09T06:59:32;2.80;;;0.70;;
51467;SDS011;37545;45.302;-122.946;2022-09-09T07:02:01;4.10;;;0.93;;
51467;SDS011;37545;45.302;-122.946;2022-09-09T07:04:30;3.17;;;0.90;;
51467;SDS011;37545;45.302;-122.946;2022-09-09T07:06:58;6.82;;;1.23;;
51467;SDS011;37545;45.302;-122.946;2022-09-09T07:09:29;3.80;;;0.90;;
51467;SDS011;37545;45.302;-122.946;2022-09-09T07:11:57;5.32;;;1.23;;
51467;SDS011;37545;45.302;-122.946;2022-09-09T07:14:26;4.03;;;1.02;;
51467;SDS011;37545;45.302;-122.946;2022-09-09T07:16:55;2.25;;;0.88;;
51467;SDS011;37545;45.302;-122.946;2022-09-09T07:19:23;3.50;;;0.90;;
51467;SDS011;37545;45.302;-122.946;2022-09-09T07:21:52;5.43;;;1.00;;
51467;SDS011;37545;45.302;-122.946;2022-09-09T07:24:21;2.45;;;0.82;;
51467;SDS011;37545;45.302;-122.946;2022-09-09T07:26:51;3.63;;;0.90;;
51467;SDS011;37545;45.302;-122.946;2022-09-09T07:29:20;3.33;;;1.15;;
51467;SDS011;37545;45.302;-122.946;2022-09-09T07:31:49;5.32;;;1.30;;
51467;SDS011;37545;45.302;-122.946;2022-09-09T07:34:17;3.65;;;1.00;;
51467;SDS011;37545;45.302;-122.946;2022-09-09T07:36:53;3.20;;;1.00;;
51467;SDS011;37545;45.302;-122.946;2022-09-09T07:39:23;3.15;;;1.05;;
51467;SDS011;37545;45.302;-122.946;2022-09-09T07:41:53;4.07;;;1.60;;
51467;SDS011;37545;45.302;-122.946;2022-09-09T07:44:22;2.85;;;0.95;;
51467;SDS011;37545;45.302;-122.946;2022-09-09T07:46:52;3.28;;;1.00;;
51467;SDS011;37545;45.302;-122.946;2022-09-09T07:49:21;3.00;;;1.10;;
51467;SDS011;37545;45.302;-122.946;2022-09-09T07:51:50;3.22;;;1.23;;
51467;SDS011;37545;45.302;-122.946;2022-09-09T07:54:19;3.28;;;1.38;;
51467;SDS011;37545;45.302;-122.946;2022-09-09T07:56:49;6.05;;;1.40;;
51467;SDS011;37545;45.302;-122.946;2022-09-09T07:59:20;3.03;;;1.05;;
51467;SDS011;37545;45.302;-122.946;2022-09-09T08:01:50;3.38;;;1.30;;
51467;SDS011;37545;45.302;-122.946;2022-09-09T08:04:20;5.85;;;1.30;;
51467;SDS011;37545;45.302;-122.946;2022-09-09T08:06:51;2.38;;;1.13;;
51467;SDS011;37545;45.302;-122.946;2022-09-09T08:09:21;2.47;;;1.20;;
51467;SDS011;37545;45.302;-122.946;2022-09-09T08:11:51;4.18;;;1.25;;
51467;SDS011;37545;45.302;-122.946;2022-09-09T08:14:21;3.30;;;1.10;;
51467;SDS011;37545;45.302;-122.946;2022-09-09T08:16:50;3.42;;;1.23;;
51467;SDS011;37545;45.302;-122.946;2022-09-09T08:19:20;3.47;;;1.05;;
51467;SDS011;37545;45.302;-122.946;2022-09-09T08:21:49;4.65;;;1.15;;
51467;SDS011;37545;45.302;-122.946;2022-09-09T08:24:17;4.53;;;1.38;;
51467;SDS011;37545;45.302;-122.946;2022-09-09T08:26:52;2.92;;;0.95;;
51467;SDS011;37545;45.302;-122.946;2022-09-09T08:29:23;4.65;;;1.48;;
51467;SDS011;37545;45.302;-122.946;2022-09-09T08:31:54;2.90;;;1.23;;
51467;SDS011;37545;45.302;-122.946;2022-09-09T08:34:24;3.05;;;1.05;;
51467;SDS011;37545;45.302;-122.946;2022-09-09T08:36:53;2.72;;;1.17;;
51467;SDS011;37545;45.302;-122.946;2022-09-09T08:39:22;4.43;;;1.10;;
51467;SDS011;37545;45.302;-122.946;2022-09-09T08:44:52;4.25;;;1.30;;
51467;SDS011;37545;45.302;-122.946;2022-09-09T08:47:32;2.63;;;1.10;;
51467;SDS011;37545;45.302;-122.946;2022-09-09T08:50:14;2.78;;;0.90;;
51467;SDS011;37545;45.302;-122.946;2022-09-09T08:52:52;2.80;;;1.13;;
51467;SDS011;37545;45.302;-122.946;2022-09-09T08:55:29;2.13;;;0.80;;
51467;SDS011;37545;45.302;-122.946;2022-09-09T08:58:09;2.15;;;1.23;;
51467;SDS011;37545;45.302;-122.946;2022-09-09T09:00:48;2.20;;;0.80;;
51467;SDS011;37545;45.302;-122.946;2022-09-09T09:03:36;2.88;;;1.48;;
51467;SDS011;37545;45.302;-122.946;2022-09-09T09:06:15;1.73;;;0.70;;
51467;SDS011;37545;45.302;-122.946;2022-09-09T09:08:54;2.13;;;1.00;;
51467;SDS011;37545;45.302;-122.946;2022-09-09T09:11:33;5.03;;;1.38;;
51467;SDS011;37545;45.302;-122.946;2022-09-09T09:14:04;5.00;;;1.40;;
51467;SDS011;37545;45.302;-122.946;2022-09-09T09:16:41;3.38;;;1.20;;
51467;SDS011;37545;45.302;-122.946;2022-09-09T09:19:16;3.28;;;1.08;;
51467;SDS011;37545;45.302;-122.946;2022-09-09T09:21:49;3.00;;;0.95;;
51467;SDS011;37545;45.302;-122.946;2022-09-09T09:24:23;4.05;;;1.25;;
51467;SDS011;37545;45.302;-122.946;2022-09-09T09:26:59;3.25;;;1.20;;
51467;SDS011;37545;45.302;-122.946;2022-09-09T09:29:39;2.22;;;1.10;;
51467;SDS011;37545;45.302;-122.946;2022-09-09T09:32:13;1.52;;;0.80;;
51467;SDS011;37545;45.302;-122.946;2022-09-09T09:34:48;4.20;;;0.93;;
51467;SDS011;37545;45.302;-122.946;2022-09-09T09:37:20;3.20;;;0.98;;
51467;SDS011;37545;45.302;-122.946;2022-09-09T09:39:54;3.25;;;1.10;;
51467;SDS011;37545;45.302;-122.946;2022-09-09T09:42:23;2.70;;;0.98;;
51467;SDS011;37545;45.302;-122.946;2022-09-09T09:44:52;4.00;;;0.90;;
51467;SDS011;37545;45.302;-122.946;2022-09-09T09:47:31;3.40;;;1.05;;
51467;SDS011;37545;45.302;-122.946;2022-09-09T09:50:00;2.65;;;1.02;;
51467;SDS011;37545;45.302;-122.946;2022-09-09T09:52:30;2.97;;;1.05;;
51467;SDS011;37545;45.302;-122.946;2022-09-09T09:55:02;2.92;;;1.27;;
51467;SDS011;37545;45.302;-122.946;2022-09-09T09:57:39;5.20;;;1.30;;
51467;SDS011;37545;45.302;-122.946;2022-09-09T10:00:12;2.88;;;1.10;;
51467;SDS011;37545;45.302;-122.946;2022-09-09T10:02:45;3.50;;;1.10;;
51467;SDS011;37545;45.302;-122.946;2022-09-09T10:05:15;3.78;;;1.10;;
51467;SDS011;37545;45.302;-122.946;2022-09-09T10:08:02;4.63;;;1.48;;
51467;SDS011;37545;45.302;-122.946;2022-09-09T10:10:36;4.72;;;1.00;;
51467;SDS011;37545;45.302;-122.946;2022-09-09T10:13:15;2.97;;;1.25;;
51467;SDS011;37545;45.302;-122.946;2022-09-09T10:15:52;1.95;;;1.17;;
51467;SDS011;37545;45.302;-122.946;2022-09-09T10:18:47;2.60;;;1.25;;
51467;SDS011;37545;45.302;-122.946;2022-09-09T10:21:31;3.17;;;1.10;;
51467;SDS011;37545;45.302;-122.946;2022-09-09T10:24:15;4.43;;;1.23;;
51467;SDS011;37545;45.302;-122.946;2022-09-09T10:26:58;4.55;;;1.40;;
51467;SDS011;37545;45.302;-122.946;2022-09-09T10:29:46;3.85;;;1.08;;
51467;SDS011;37545;45.302;-122.946;2022-09-09T10:32:32;3.88;;;1.20;;
51467;SDS011;37545;45.302;-122.946;2022-09-09T10:35:14;2.63;;;1.20;;
51467;SDS011;37545;45.302;-122.946;2022-09-09T10:37:57;4.05;;;1.33;;
51467;SDS011;37545;45.302;-122.946;2022-09-09T10:40:41;3.72;;;1.20;;
51467;SDS011;37545;45.302;-122.946;2022-09-09T10:43:20;3.80;;;1.15;;
51467;SDS011;37545;45.302;-122.946;2022-09-09T10:46:00;3.25;;;1.30;;
51467;SDS011;37545;45.302;-122.946;2022-09-09T10:48:44;2.33;;;1.10;;
51467;SDS011;37545;45.302;-122.946;2022-09-09T10:51:28;3.33;;;1.33;;
51467;SDS011;37545;45.302;-122.946;2022-09-09T10:54:12;5.45;;;1.33;;
51467;SDS011;37545;45.302;-122.946;2022-09-09T10:57:01;4.32;;;1.58;;
51467;SDS011;37545;45.302;-122.946;2022-09-09T10:59:35;4.43;;;1.20;;
51467;SDS011;37545;45.302;-122.946;2022-09-09T11:02:11;2.83;;;1.42;;
51467;SDS011;37545;45.302;-122.946;2022-09-09T11:04:46;4.20;;;1.60;;
51467;SDS011;37545;45.302;-122.946;2022-09-09T11:07:24;2.30;;;1.23;;
51467;SDS011;37545;45.302;-122.946;2022-09-09T11:10:04;2.92;;;1.55;;
51467;SDS011;37545;45.302;-122.946;2022-09-09T11:12:41;3.78;;;1.48;;
51467;SDS011;37545;45.302;-122.946;2022-09-09T11:15:15;5.55;;;1.50;;
51467;SDS011;37545;45.302;-122.946;2022-09-09T11:17:48;3.08;;;1.38;;
51467;SDS011;37545;45.302;-122.946;2022-09-09T11:20:20;3.78;;;1.50;;
51467;SDS011;37545;45.302;-122.946;2022-09-09T11:22:53;3.92;;;1.67;;
51467;SDS011;37545;45.302;-122.946;2022-09-09T11:25:28;3.25;;;1.45;;
51467;SDS011;37545;45.302;-122.946;2022-09-09T11:28:19;3.33;;;1.58;;
51467;SDS011;37545;45.302;-122.946;2022-09-09T11:31:06;9.23;;;1.88;;
51467;SDS011;37545;45.302;-122.946;2022-09-09T11:33:52;6.45;;;1.95;;
51467;SDS011;37545;45.302;-122.946;2022-09-09T11:37:02;4.53;;;1.85;;
51467;SDS011;37545;45.302;-122.946;2022-09-09T11:42:45;2.17;;;1.50;;
51467;SDS011;37545;45.302;-122.946;2022-09-09T11:45:23;5.05;;;2.03;;
51467;SDS011;37545;45.302;-122.946;2022-09-09T11:47:54;5.05;;;1.90;;
51467;SDS011;37545;45.302;-122.946;2022-09-09T11:50:28;4.20;;;1.35;;
51467;SDS011;37545;45.302;-122.946;2022-09-09T11:53:21;3.13;;;1.52;;
51467;SDS011;37545;45.302;-122.946;2022-09-09T11:56:05;4.13;;;1.98;;
51467;SDS011;37545;45.302;-122.946;2022-09-09T11:58:40;4.30;;;2.53;;
51467;SDS011;37545;45.302;-122.946;2022-09-09T12:06:57;5.32;;;2.33;;
51467;SDS011;37545;45.302;-122.946;2022-09-09T12:09:30;5.43;;;2.13;;
51467;SDS011;37545;45.302;-122.946;2022-09-09T12:12:23;3.90;;;1.88;;
51467;SDS011;37545;45.302;-122.946;2022-09-09T12:14:58;5.28;;;2.80;;
51467;SDS011;37545;45.302;-122.946;2022-09-09T12:17:29;3.58;;;1.92;;
51467;SDS011;37545;45.302;-122.946;2022-09-09T12:20:03;3.35;;;1.98;;
51467;SDS011;37545;45.302;-122.946;2022-09-09T12:22:43;4.35;;;2.13;;
51467;SDS011;37545;45.302;-122.946;2022-09-09T12:25:22;4.13;;;2.15;;
51467;SDS011;37545;45.302;-122.946;2022-09-09T12:28:04;4.53;;;2.13;;
51467;SDS011;37545;45.302;-122.946;2022-09-09T12:30:40;4.15;;;2.35;;
51467;SDS011;37545;45.302;-122.946;2022-09-09T12:33:16;4.78;;;2.47;;
51467;SDS011;37545;45.302;-122.946;2022-09-09T12:35:52;6.40;;;2.58;;
51467;SDS011;37545;45.302;-122.946;2022-09-09T12:38:27;4.43;;;2.72;;
51467;SDS011;37545;45.302;-122.946;2022-09-09T12:41:00;5.38;;;2.45;;
51467;SDS011;37545;45.302;-122.946;2022-09-09T12:43:30;4.95;;;2.38;;
51467;SDS011;37545;45.302;-122.946;2022-09-09T12:45:59;5.65;;;2.60;;
51467;SDS011;37545;45.302;-122.946;2022-09-09T12:48:33;4.38;;;2.42;;
51467;SDS011;37545;45.302;-122.946;2022-09-09T12:51:03;4.28;;;2.60;;
51467;SDS011;37545;45.302;-122.946;2022-09-09T12:53:43;6.13;;;2.22;;
51467;SDS011;37545;45.302;-122.946;2022-09-09T12:56:18;3.85;;;2.42;;
51467;SDS011;37545;45.302;-122.946;2022-09-09T12:58:50;3.25;;;2.20;;
51467;SDS011;37545;45.302;-122.946;2022-09-09T13:01:22;5.18;;;2.50;;
51467;SDS011;37545;45.302;-122.946;2022-09-09T13:03:52;5.47;;;2.63;;
51467;SDS011;37545;45.302;-122.946;2022-09-09T13:06:22;4.82;;;2.72;;
51467;SDS011;37545;45.302;-122.946;2022-09-09T13:08:52;5.85;;;2.58;;
51467;SDS011;37545;45.302;-122.946;2022-09-09T13:11:23;5.65;;;2.33;;
51467;SDS011;37545;45.302;-122.946;2022-09-09T13:13:58;4.15;;;2.55;;
51467;SDS011;37545;45.302;-122.946;2022-09-09T13:16:28;6.32;;;2.70;;
51467;SDS011;37545;45.302;-122.946;2022-09-09T13:18:58;5.43;;;3.00;;
51467;SDS011;37545;45.302;-122.946;2022-09-09T13:21:33;4.82;;;2.97;;
51467;SDS011;37545;45.302;-122.946;2022-09-09T13:24:03;4.22;;;2.67;;
51467;SDS011;37545;45.302;-122.946;2022-09-09T13:26:33;6.50;;;2.40;;
51467;SDS011;37545;45.302;-122.946;2022-09-09T13:29:14;4.20;;;2.35;;
51467;SDS011;37545;45.302;-122.946;2022-09-09T13:31:47;4.03;;;3.05;;
51467;SDS011;37545;45.302;-122.946;2022-09-09T13:34:28;7.17;;;2.60;;
51467;SDS011;37545;45.302;-122.946;2022-09-09T13:36:59;5.50;;;2.95;;
51467;SDS011;37545;45.302;-122.946;2022-09-09T13:39:32;4.22;;;2.67;;
51467;SDS011;37545;45.302;-122.946;2022-09-09T13:42:03;4.90;;;2.78;;
51467;SDS011;37545;45.302;-122.946;2022-09-09T13:44:34;5.38;;;3.08;;
51467;SDS011;37545;45.302;-122.946;2022-09-09T13:47:17;5.00;;;3.00;;
51467;SDS011;37545;45.302;-122.946;2022-09-09T13:49:48;4.78;;;3.05;;
51467;SDS011;37545;45.302;-122.946;2022-09-09T13:52:18;6.25;;;3.10;;
51467;SDS011;37545;45.302;-122.946;2022-09-09T13:54:48;5.75;;;3.67;;
51467;SDS011;37545;45.302;-122.946;2022-09-09T13:57:17;6.85;;;3.45;;
51467;SDS011;37545;45.302;-122.946;2022-09-09T13:59:49;6.43;;;2.92;;
51467;SDS011;37545;45.302;-122.946;2022-09-09T14:02:18;10.00;;;3.42;;
51467;SDS011;37545;45.302;-122.946;2022-09-09T14:04:49;3.35;;;2.67;;
51467;SDS011;37545;45.302;-122.946;2022-09-09T14:07:20;4.85;;;3.17;;
51467;SDS011;37545;45.302;-122.946;2022-09-09T14:09:50;5.78;;;3.38;;
51467;SDS011;37545;45.302;-122.946;2022-09-09T14:12:19;9.48;;;3.78;;
51467;SDS011;37545;45.302;-122.946;2022-09-09T14:14:49;6.03;;;3.70;;
51467;SDS011;37545;45.302;-122.946;2022-09-09T14:17:18;5.65;;;4.10;;
51467;SDS011;37545;45.302;-122.946;2022-09-09T14:19:47;7.28;;;3.78;;
51467;SDS011;37545;45.302;-122.946;2022-09-09T14:22:16;7.82;;;3.75;;
51467;SDS011;37545;45.302;-122.946;2022-09-09T14:24:45;7.25;;;3.58;;
51467;SDS011;37545;45.302;-122.946;2022-09-09T14:27:13;7.47;;;4.00;;
51467;SDS011;37545;45.302;-122.946;2022-09-09T14:29:42;6.93;;;4.20;;
51467;SDS011;37545;45.302;-122.946;2022-09-09T14:32:13;5.38;;;3.92;;
51467;SDS011;37545;45.302;-122.946;2022-09-09T14:34:41;6.78;;;4.50;;
51467;SDS011;37545;45.302;-122.946;2022-09-09T14:37:10;9.57;;;5.18;;
51467;SDS011;37545;45.302;-122.946;2022-09-09T14:39:39;7.55;;;4.30;;
51467;SDS011;37545;45.302;-122.946;2022-09-09T14:42:09;9.68;;;4.20;;
51467;SDS011;37545;45.302;-122.946;2022-09-09T14:44:38;8.20;;;4.88;;
51467;SDS011;37545;45.302;-122.946;2022-09-09T14:47:07;6.10;;;4.47;;
51467;SDS011;37545;45.302;-122.946;2022-09-09T14:49:38;8.27;;;4.95;;
51467;SDS011;37545;45.302;-122.946;2022-09-09T14:52:07;6.35;;;4.75;;
51467;SDS011;37545;45.302;-122.946;2022-09-09T14:54:36;8.75;;;5.03;;